»·PEaware :: N881AT KSNA-KCRQ

N881AT :: KSNA-KCRQ

FLIGHT INFORMATION

Flight Status: Arrived
Operator: Privately registered:
United States
More flights under this callsign
Pilot: Aleksandar D. (29171)
Aircraft: CESSNA 172 SKYHAWK
(C172)
More flights by this aircraft type
Origin: KSNA John Wayne-Orange Co
United States
Destination: KCRQ McClellan-Palomar
United States
More flights between these airports :: More routes between these airports
Route: V23 OCN
File this flight plan on PilotEdge
Remarks:
Altitude:
(Current/Filed)
5,000ft
Speed:
(Current/Filed)
110kts
Departed: 12-Jan-21 06:19 PM
Arrived: 12-Jan-21 06:59 PM
Distance/Time
Traveled:
44nm/0:40
Distance/Time
To Go:
Arrived

Flight Plot

Page will automatically refresh every two minutes.


Map Options




Map Legend


Flown Route
Filed Route
Departure Airport
Arrival Airport
Navaid (VOR, NDB)
Fix

Horizontal Profiles

Position Reports

Time Latitude Longitude Heading Altitude Ground
Speed
12-Jan-21 17:56 33.669712 -117.869543 41 59ft 0kts
12-Jan-21 17:57 33.669712 -117.869543 41 59ft 0kts
12-Jan-21 17:58 33.669712 -117.869543 41 59ft 0kts
12-Jan-21 17:59 33.669712 -117.869543 41 59ft 0kts
12-Jan-21 18:00 33.669712 -117.869542 41 59ft 0kts
12-Jan-21 18:01 33.669712 -117.869542 41 59ft 0kts
12-Jan-21 18:02 33.669712 -117.869542 41 59ft 0kts
12-Jan-21 18:03 33.669712 -117.869542 41 59ft 0kts
12-Jan-21 18:04 33.669712 -117.869542 41 59ft 0kts
12-Jan-21 18:05 33.669712 -117.869542 41 59ft 0kts
12-Jan-21 18:06 33.669712 -117.869542 41 59ft 0kts
12-Jan-21 18:07 33.669720 -117.869534 40 59ft 0kts
12-Jan-21 18:08 33.669720 -117.869534 40 59ft 0kts
12-Jan-21 18:09 33.669720 -117.869534 40 59ft 0kts
12-Jan-21 18:10 33.670094 -117.869790 340 59ft 10kts
12-Jan-21 18:11 33.670437 -117.870125 150 59ft 0kts
12-Jan-21 18:12 33.670437 -117.870126 150 59ft 0kts
12-Jan-21 18:13 33.670879 -117.869116 39 59ft 12kts
12-Jan-21 18:14 33.674036 -117.867119 28 59ft 9kts
12-Jan-21 18:15 33.677641 -117.864840 27 59ft 17kts
12-Jan-21 18:16 33.679961 -117.863591 295 59ft 0kts
12-Jan-21 18:17 33.679980 -117.863638 295 59ft 1kts
12-Jan-21 18:18 33.671806 -117.869825 210 293ft 76kts
12-Jan-21 18:19 33.651013 -117.875597 186 1173ft 83kts
12-Jan-21 18:20 33.626828 -117.878677 186 1944ft 95kts
12-Jan-21 18:21 33.600957 -117.881883 185 2811ft 87kts
12-Jan-21 18:22 33.581268 -117.874756 113 3619ft 82kts
12-Jan-21 18:23 33.571466 -117.849141 110 4364ft 81kts
12-Jan-21 18:24 33.561966 -117.824837 111 4993ft 89kts
12-Jan-21 18:25 33.549009 -117.790640 111 4949ft 119kts
12-Jan-21 18:26 33.534015 -117.755780 132 4984ft 113kts
12-Jan-21 18:27 33.510957 -117.728719 134 4977ft 117kts
12-Jan-21 18:28 33.487470 -117.701037 133 4977ft 118kts
12-Jan-21 18:29 33.462985 -117.674469 137 4975ft 119kts
12-Jan-21 18:30 33.437732 -117.648643 136 4978ft 119kts
12-Jan-21 18:31 33.413772 -117.620916 134 4977ft 119kts
12-Jan-21 18:32 33.389913 -117.593231 134 4977ft 119kts
12-Jan-21 18:33 33.366020 -117.565410 133 4977ft 120kts
12-Jan-21 18:34 33.342105 -117.537573 134 4977ft 120kts
12-Jan-21 18:35 33.318139 -117.509716 134 4977ft 120kts
12-Jan-21 18:36 33.294216 -117.481922 133 4977ft 120kts
12-Jan-21 18:37 33.270278 -117.454249 134 4976ft 120kts
12-Jan-21 18:38 33.255517 -117.421292 92 4978ft 118kts
12-Jan-21 18:39 33.252686 -117.382070 92 4977ft 118kts
12-Jan-21 18:40 33.249702 -117.342123 95 5033ft 123kts
12-Jan-21 18:41 33.246829 -117.301431 93 5013ft 127kts
12-Jan-21 18:42 33.244852 -117.259847 91 5013ft 128kts
12-Jan-21 18:43 33.242260 -117.218906 95 4825ft 116kts
12-Jan-21 18:44 33.240181 -117.181155 96 4027ft 107kts
12-Jan-21 18:45 33.237597 -117.149823 91 4001ft 89kts
12-Jan-21 18:46 33.234988 -117.116735 85 4050ft 118kts
12-Jan-21 18:47 33.229512 -117.080844 135 3951ft 105kts
12-Jan-21 18:48 33.207891 -117.062888 137 4016ft 92kts
12-Jan-21 18:49 33.186249 -117.043280 143 4003ft 105kts
12-Jan-21 18:50 33.162454 -117.056160 246 3733ft 104kts
12-Jan-21 18:51 33.158836 -117.088042 258 3340ft 97kts
12-Jan-21 18:52 33.153065 -117.119603 260 3175ft 97kts
12-Jan-21 18:53 33.149213 -117.152373 260 2689ft 97kts
12-Jan-21 18:54 33.143447 -117.184305 259 1999ft 98kts
12-Jan-21 18:55 33.138618 -117.215989 258 1446ft 97kts
12-Jan-21 18:56 33.133417 -117.248485 258 780ft 96kts
12-Jan-21 18:57 33.128638 -117.277625 259 338ft 74kts
12-Jan-21 18:58 33.126921 -117.280799 77 334ft 0kts
12-Jan-21 19:00 33.126921 -117.280799 77 334ft 0kts
12-Jan-21 19:01 33.126921 -117.280799 77 334ft 0kts
12-Jan-21 19:02 33.126921 -117.280799 77 334ft 0kts

Navigation Log

Ident Type
Flight plan parsing failed, navigation log unavailable